createdAt,value
2023-02-23T00:01:21.872Z,50.51
2023-02-23T00:06:28.220Z,50.93
2023-02-23T00:11:29.861Z,50.78
2023-02-23T00:16:31.584Z,50.95
2023-02-23T00:21:35.053Z,51.19
2023-02-23T00:26:42.365Z,51.36
2023-02-23T00:31:48.143Z,51.17
2023-02-23T00:36:55.371Z,51.09
2023-02-23T00:42:02.730Z,50.80
2023-02-23T00:47:04.431Z,51.22
2023-02-23T00:52:06.021Z,50.87
2023-02-23T00:57:08.049Z,51.13
2023-02-23T01:02:09.634Z,51.12
2023-02-23T01:07:14.107Z,51.10
2023-02-23T01:12:16.896Z,50.94
2023-02-23T01:17:18.978Z,51.01
2023-02-23T01:22:20.534Z,51.27
2023-02-23T01:27:22.159Z,51.86
2023-02-23T01:32:26.020Z,51.80
2023-02-23T01:37:27.686Z,51.92
2023-02-23T01:42:29.350Z,51.77
2023-02-23T01:47:31.015Z,51.64
2023-02-23T01:52:33.955Z,51.50
2023-02-23T01:57:36.279Z,51.48
2023-02-23T02:02:37.872Z,51.11
2023-02-23T02:07:45.809Z,51.11
2023-02-23T02:12:56.880Z,51.15
2023-02-23T02:18:18.591Z,50.95
2023-02-23T02:23:53.376Z,51.38
2023-02-23T02:29:18.440Z,51.67
2023-02-23T02:35:10.558Z,51.22
2023-02-23T02:40:24.981Z,51.51
2023-02-23T02:45:54.507Z,51.55
2023-02-23T02:51:05.185Z,51.64
2023-02-23T02:56:08.682Z,51.72
2023-02-23T03:01:35.354Z,51.48
2023-02-23T03:07:14.914Z,51.74
2023-02-23T03:12:50.226Z,51.80
2023-02-23T03:18:27.324Z,51.90
2023-02-23T03:23:57.657Z,52.15
2023-02-23T03:30:06.566Z,51.90
2023-02-23T03:35:42.401Z,52.04
2023-02-23T03:41:06.702Z,51.95
2023-02-23T03:46:31.189Z,52.04
2023-02-23T03:51:56.063Z,52.17
2023-02-23T03:57:20.502Z,52.12
2023-02-23T04:02:42.744Z,52.01
2023-02-23T04:08:06.213Z,52.48
2023-02-23T04:13:20.404Z,52.72
2023-02-23T04:18:25.798Z,52.66
2023-02-23T04:23:28.018Z,52.97
2023-02-23T04:28:29.701Z,52.61
2023-02-23T04:33:31.392Z,52.56
2023-02-23T04:38:32.973Z,52.52
2023-02-23T04:43:34.519Z,52.89
2023-02-23T04:48:36.140Z,53.22
2023-02-23T04:53:41.475Z,52.91
2023-02-23T04:58:43.242Z,52.95
2023-02-23T05:03:44.812Z,52.38
2023-02-23T05:08:46.445Z,52.36
2023-02-23T05:13:47.974Z,52.28
2023-02-23T05:18:49.734Z,52.24
2023-02-23T05:23:51.469Z,52.25
2023-02-23T05:28:53.129Z,52.39
2023-02-23T05:33:54.700Z,52.37
2023-02-23T05:38:56.223Z,52.04
2023-02-23T05:43:57.736Z,52.57
2023-02-23T05:49:01.305Z,52.49
2023-02-23T05:54:02.838Z,53.04
2023-02-23T05:59:04.896Z,52.92
2023-02-23T06:04:06.544Z,53.34
2023-02-23T06:09:08.133Z,53.04
2023-02-23T06:14:09.709Z,52.89
2023-02-23T06:19:11.742Z,53.10
2023-02-23T06:24:13.371Z,52.93
2023-02-23T06:29:15.697Z,52.58
2023-02-23T06:34:17.832Z,52.88
2023-02-23T06:39:19.418Z,52.72
2023-02-23T06:44:22.160Z,53.13
2023-02-23T06:49:23.736Z,53.59
2023-02-23T06:54:26.342Z,53.38
2023-02-23T06:59:27.968Z,53.56
2023-02-23T07:04:29.522Z,53.50
2023-02-23T07:09:33.352Z,53.57
2023-02-23T07:14:35.318Z,53.74
2023-02-23T07:19:36.910Z,53.83
2023-02-23T07:24:38.827Z,54.33
2023-02-23T07:29:40.387Z,54.67
2023-02-23T07:34:42.108Z,54.35
2023-02-23T07:39:44.119Z,54.39
2023-02-23T07:44:45.681Z,54.39
2023-02-23T07:49:47.209Z,54.41
2023-02-23T07:54:48.729Z,54.27
2023-02-23T07:59:50.610Z,54.66
2023-02-23T08:04:54.261Z,54.84
2023-02-23T08:09:55.851Z,54.75
2023-02-23T08:15:00.220Z,54.76
2023-02-23T08:20:01.836Z,54.48
2023-02-23T08:25:07.157Z,54.32
2023-02-23T08:30:09.874Z,54.51
2023-02-23T08:35:12.004Z,54.40
2023-02-23T08:40:18.306Z,54.60
2023-02-23T08:45:20.617Z,54.64
2023-02-23T08:50:24.765Z,54.73
2023-02-23T08:55:27.448Z,54.63
2023-02-23T09:00:29.075Z,54.73
2023-02-23T09:05:31.697Z,54.54
2023-02-23T09:10:33.567Z,54.82
2023-02-23T09:15:35.173Z,54.51
2023-02-23T09:20:36.709Z,54.50
2023-02-23T09:25:45.673Z,54.21
2023-02-23T09:30:48.297Z,54.56
2023-02-23T09:35:49.919Z,54.50
2023-02-23T09:40:53.955Z,54.54
2023-02-23T09:46:15.174Z,54.43
2023-02-23T09:51:21.212Z,54.36
2023-02-23T09:56:43.264Z,54.66
2023-02-23T10:01:47.991Z,54.64
2023-02-23T10:07:09.272Z,54.80
2023-02-23T10:12:26.408Z,54.48
2023-02-23T10:17:27.874Z,55.09
2023-02-23T10:22:32.519Z,54.45
2023-02-23T10:27:42.019Z,54.52
2023-02-23T10:33:21.298Z,54.61
2023-02-23T10:38:22.863Z,54.80
2023-02-23T10:43:24.638Z,54.71
2023-02-23T10:48:34.136Z,54.68
2023-02-23T10:53:37.548Z,54.93
2023-02-23T10:58:59.386Z,54.66
2023-02-23T11:04:16.731Z,54.63
2023-02-23T11:09:41.326Z,54.61
2023-02-23T11:14:46.875Z,54.83
2023-02-23T11:19:48.492Z,54.76
2023-02-23T11:24:52.273Z,54.57
2023-02-23T11:29:59.682Z,54.90
2023-02-23T11:35:21.595Z,54.92
2023-02-23T11:40:29.445Z,54.85
2023-02-23T11:45:34.496Z,54.91
2023-02-23T11:50:36.943Z,54.92
2023-02-23T11:55:39.486Z,54.90
2023-02-23T12:00:41.012Z,54.97
2023-02-23T12:05:53.255Z,54.19
2023-02-23T12:10:59.981Z,54.36
2023-02-23T12:16:09.016Z,54.07
2023-02-23T12:21:18.368Z,54.02
2023-02-23T12:26:22.671Z,53.92
2023-02-23T12:31:46.238Z,53.45
2023-02-23T12:37:14.453Z,52.90
2023-02-23T12:42:37.890Z,53.33
2023-02-23T12:47:46.844Z,53.19
2023-02-23T12:52:57.600Z,53.04
2023-02-23T12:58:29.068Z,52.94
2023-02-23T13:03:36.547Z,52.79
2023-02-23T13:08:58.531Z,52.67
2023-02-23T13:14:39.784Z,52.39
2023-02-23T13:19:56.236Z,52.42
2023-02-23T13:25:05.172Z,51.91
2023-02-23T13:30:11.187Z,52.17
2023-02-23T13:35:21.675Z,52.07
2023-02-23T13:40:33.911Z,51.84
2023-02-23T13:45:55.463Z,51.76
2023-02-23T13:51:31.284Z,51.78
2023-02-23T13:56:42.078Z,52.05
2023-02-23T14:01:48.840Z,51.71
2023-02-23T14:07:24.306Z,51.72
2023-02-23T14:12:38.243Z,51.66
2023-02-23T14:17:41.229Z,51.37
2023-02-23T14:23:24.989Z,51.37
2023-02-23T14:28:30.690Z,51.37
2023-02-23T14:33:45.221Z,51.28
2023-02-23T14:38:50.455Z,51.35
2023-02-23T14:44:30.898Z,51.22
2023-02-23T14:49:40.800Z,51.16
2023-02-23T14:54:42.379Z,51.38
2023-02-23T14:59:44.940Z,51.13
2023-02-23T15:04:46.947Z,51.16
2023-02-23T15:09:48.559Z,51.02
2023-02-23T15:14:50.353Z,51.04
2023-02-23T15:20:14.291Z,51.03
2023-02-23T15:25:20.397Z,50.91
2023-02-23T15:30:25.024Z,50.70
2023-02-23T15:35:27.242Z,50.63
2023-02-23T15:40:30.032Z,50.70
2023-02-23T15:45:43.538Z,50.69
2023-02-23T15:50:50.686Z,50.65
2023-02-23T15:55:55.692Z,50.58
2023-02-23T16:01:09.639Z,51.08
2023-02-23T16:06:24.931Z,51.34
2023-02-23T16:11:33.005Z,51.62
2023-02-23T16:16:35.464Z,52.04
2023-02-23T16:21:37.755Z,52.18
2023-02-23T16:26:46.704Z,52.39
2023-02-23T16:31:55.182Z,52.37
2023-02-23T16:37:00.057Z,52.43
2023-02-23T16:42:01.724Z,52.80
2023-02-23T16:47:03.249Z,52.90
2023-02-23T16:52:15.746Z,52.94
2023-02-23T16:57:32.314Z,52.90
2023-02-23T17:02:36.233Z,53.14
2023-02-23T17:07:37.764Z,53.08
2023-02-23T17:12:39.335Z,53.03
2023-02-23T17:17:40.969Z,52.89
2023-02-23T17:22:44.919Z,53.01
2023-02-23T17:27:46.688Z,53.16
2023-02-23T17:32:49.437Z,53.33
2023-02-23T17:37:51.326Z,53.46
2023-02-23T17:42:53.471Z,53.49
2023-02-23T17:47:58.301Z,53.61
2023-02-23T17:52:59.926Z,53.75
2023-02-23T17:58:01.555Z,53.51
2023-02-23T18:03:03.306Z,53.58
2023-02-23T18:08:04.987Z,53.44
2023-02-23T18:13:06.662Z,53.72
2023-02-23T18:18:08.202Z,53.85
2023-02-23T18:23:09.805Z,53.85
2023-02-23T18:28:12.056Z,54.04
2023-02-23T18:33:14.299Z,53.70
2023-02-23T18:38:17.416Z,53.85
2023-02-23T18:43:19.069Z,54.06
2023-02-23T18:48:20.654Z,54.21
2023-02-23T18:53:22.362Z,54.12
2023-02-23T18:58:26.401Z,54.35
2023-02-23T19:03:29.765Z,54.18
2023-02-23T19:08:31.346Z,54.26
2023-02-23T19:13:32.913Z,54.56
2023-02-23T19:18:35.709Z,54.46
2023-02-23T19:23:37.763Z,54.45
2023-02-23T19:28:39.578Z,54.38
2023-02-23T19:33:41.859Z,54.57
2023-02-23T19:38:43.548Z,54.77
2023-02-23T19:43:45.997Z,54.70
2023-02-23T19:48:51.997Z,54.93
2023-02-23T19:53:57.763Z,54.85
2023-02-23T19:59:01.279Z,54.95
2023-02-23T20:04:06.670Z,55.11
2023-02-23T20:09:09.554Z,55.20
2023-02-23T20:14:12.370Z,55.13
2023-02-23T20:19:14.068Z,55.30
2023-02-23T20:24:16.185Z,55.27
2023-02-23T20:29:19.195Z,55.15
2023-02-23T20:34:24.498Z,55.18
2023-02-23T20:39:27.129Z,55.20
2023-02-23T20:44:30.243Z,55.23
2023-02-23T20:49:31.886Z,55.47
2023-02-23T20:54:33.466Z,55.26
2023-02-23T20:59:39.078Z,55.46
2023-02-23T21:04:43.429Z,55.51
2023-02-23T21:09:45.523Z,55.59
2023-02-23T21:14:50.098Z,55.44
2023-02-23T21:19:51.897Z,55.64
2023-02-23T21:24:53.620Z,55.75
2023-02-23T21:29:55.852Z,55.52
2023-02-23T21:34:58.517Z,55.55
2023-02-23T21:40:00.058Z,55.71
2023-02-23T21:45:01.739Z,55.74
2023-02-23T21:50:04.348Z,55.60
2023-02-23T21:55:13.250Z,55.79
2023-02-23T22:00:21.727Z,55.61
2023-02-23T22:05:23.409Z,55.86
2023-02-23T22:10:24.986Z,55.71
2023-02-23T22:15:29.598Z,55.66
2023-02-23T22:20:33.580Z,55.58
2023-02-23T22:25:35.138Z,55.94
2023-02-23T22:30:36.680Z,55.61
2023-02-23T22:35:41.333Z,55.81
2023-02-23T22:40:42.917Z,55.85
2023-02-23T22:45:44.585Z,55.85
2023-02-23T22:50:46.142Z,55.83
2023-02-23T22:55:54.209Z,55.86
2023-02-23T23:01:06.606Z,55.88
2023-02-23T23:06:12.492Z,55.75
2023-02-23T23:11:20.208Z,56.13
2023-02-23T23:16:32.074Z,55.96
2023-02-23T23:21:35.574Z,55.72
2023-02-23T23:26:41.745Z,56.05
2023-02-23T23:31:46.575Z,56.00
2023-02-23T23:36:49.376Z,56.08
2023-02-23T23:41:51.209Z,55.93
2023-02-23T23:46:52.874Z,55.98
2023-02-23T23:51:56.744Z,55.64
2023-02-23T23:57:01.346Z,55.42
